createdAt,value
2019-02-09T00:00:57.667Z,8.80
2019-02-09T00:03:29.077Z,8.80
2019-02-09T00:06:00.843Z,8.80
2019-02-09T00:08:33.723Z,8.80
2019-02-09T00:11:06.746Z,8.70
2019-02-09T00:13:38.154Z,8.70
2019-02-09T00:16:09.688Z,8.70
2019-02-09T00:18:41.634Z,8.60
2019-02-09T00:21:14.639Z,8.60
2019-02-09T00:23:46.159Z,8.60
2019-02-09T00:26:21.029Z,8.60
2019-02-09T00:28:55.781Z,8.60
2019-02-09T00:31:27.221Z,8.70
2019-02-09T00:33:59.439Z,8.70
2019-02-09T00:36:30.876Z,8.70
2019-02-09T00:39:04.458Z,8.70
2019-02-09T00:41:39.470Z,8.70
2019-02-09T00:44:11.154Z,8.80
2019-02-09T00:46:42.864Z,8.80
2019-02-09T00:49:14.375Z,8.80
2019-02-09T00:51:46.030Z,8.70
2019-02-09T00:54:17.540Z,8.70
2019-02-09T00:56:50.730Z,8.80
2019-02-09T00:59:22.340Z,8.80
2019-02-09T01:01:56.294Z,8.80
2019-02-09T01:04:27.828Z,8.70
2019-02-09T01:06:59.485Z,8.70
2019-02-09T01:09:32.517Z,8.70
2019-02-09T01:12:04.647Z,8.70
2019-02-09T01:14:36.000Z,8.60
2019-02-09T01:17:08.576Z,8.60
2019-02-09T01:19:41.691Z,8.60
2019-02-09T01:22:13.368Z,8.70
2019-02-09T01:24:45.122Z,8.60
2019-02-09T01:27:17.726Z,8.50
2019-02-09T01:29:49.419Z,8.50
2019-02-09T01:32:21.815Z,8.40
2019-02-09T01:34:53.694Z,8.40
2019-02-09T01:37:25.451Z,8.40
2019-02-09T01:39:57.267Z,8.30
2019-02-09T01:42:28.827Z,8.30
2019-02-09T01:45:00.275Z,8.40
2019-02-09T01:47:31.589Z,8.30
2019-02-09T01:50:03.716Z,8.30
2019-02-09T01:52:35.399Z,8.40
2019-02-09T01:55:07.912Z,8.40
2019-02-09T01:57:39.371Z,8.40
2019-02-09T02:00:21.173Z,8.40
2019-02-09T02:02:53.048Z,8.50
2019-02-09T02:05:25.263Z,8.50
2019-02-09T02:07:58.467Z,8.50
2019-02-09T02:10:34.694Z,8.50
2019-02-09T02:13:08.570Z,8.40
2019-02-09T02:15:42.417Z,8.40
2019-02-09T02:18:13.999Z,8.30
2019-02-09T02:20:46.850Z,8.30
2019-02-09T02:23:19.539Z,8.30
2019-02-09T02:25:51.068Z,8.30
2019-02-09T02:28:22.851Z,8.20
2019-02-09T02:30:55.112Z,8.30
2019-02-09T02:33:26.539Z,8.30
2019-02-09T02:35:58.501Z,8.20
2019-02-09T02:38:32.553Z,8.10
2019-02-09T02:41:06.150Z,8.00
2019-02-09T02:43:37.586Z,8.10
2019-02-09T02:46:08.907Z,8.10
2019-02-09T02:48:41.977Z,8.00
2019-02-09T02:51:13.487Z,8.00
2019-02-09T02:53:47.412Z,8.10
2019-02-09T02:56:19.333Z,8.10
2019-02-09T02:58:50.913Z,8.20
2019-02-09T03:01:25.658Z,8.20
2019-02-09T03:03:57.388Z,8.10
2019-02-09T03:06:32.145Z,8.00
2019-02-09T03:09:05.070Z,7.90
2019-02-09T03:11:38.193Z,7.80
2019-02-09T03:14:09.775Z,7.80
2019-02-09T03:16:42.562Z,7.60
2019-02-09T03:19:19.165Z,7.60
2019-02-09T03:21:50.886Z,7.50
2019-02-09T03:24:22.417Z,7.50
2019-02-09T03:26:56.483Z,7.50
2019-02-09T03:29:28.080Z,7.40
2019-02-09T03:31:59.489Z,7.50
2019-02-09T03:34:32.461Z,7.40
2019-02-09T03:37:09.650Z,7.50
2019-02-09T03:39:41.448Z,7.50
2019-02-09T03:42:13.364Z,7.60
2019-02-09T03:44:45.121Z,7.60
2019-02-09T03:47:16.784Z,7.60
2019-02-09T03:49:50.760Z,7.60
2019-02-09T03:52:24.018Z,7.50
2019-02-09T03:54:55.975Z,7.50
2019-02-09T03:57:29.117Z,7.50
2019-02-09T04:00:01.004Z,7.50
2019-02-09T04:02:33.935Z,7.40
2019-02-09T04:05:07.843Z,7.40
2019-02-09T04:07:39.770Z,7.50
2019-02-09T04:10:13.013Z,7.50
2019-02-09T04:12:44.387Z,7.50
2019-02-09T04:15:17.908Z,7.50
2019-02-09T04:17:49.994Z,7.60
2019-02-09T04:20:23.751Z,7.70
2019-02-09T04:22:56.662Z,7.60
2019-02-09T04:25:28.619Z,7.60
2019-02-09T04:28:01.662Z,7.60
2019-02-09T04:30:35.625Z,7.60
2019-02-09T04:33:06.894Z,7.60
2019-02-09T04:35:39.150Z,7.60
2019-02-09T04:38:10.496Z,7.60
2019-02-09T04:40:42.052Z,7.40
2019-02-09T04:43:14.010Z,7.50
2019-02-09T04:45:45.500Z,7.30
2019-02-09T04:48:17.512Z,7.20
2019-02-09T04:50:49.062Z,7.20
2019-02-09T04:53:20.811Z,7.20
2019-02-09T04:55:52.392Z,7.20
2019-02-09T04:58:27.258Z,7.20
2019-02-09T05:00:59.288Z,7.20
2019-02-09T05:03:31.015Z,7.20
2019-02-09T05:06:02.618Z,7.20
2019-02-09T05:08:34.145Z,7.10
2019-02-09T05:11:06.266Z,7.10
2019-02-09T05:13:37.915Z,7.20
2019-02-09T05:16:09.910Z,7.10
2019-02-09T05:18:42.704Z,7.10
2019-02-09T05:21:14.278Z,7.10
2019-02-09T05:23:45.652Z,7.00
2019-02-09T05:26:17.300Z,7.00
2019-02-09T05:28:49.643Z,7.00
2019-02-09T05:31:23.455Z,7.00
2019-02-09T05:33:55.656Z,7.10
2019-02-09T05:36:27.154Z,7.10
2019-02-09T05:38:58.484Z,7.00
2019-02-09T05:41:29.825Z,6.90
2019-02-09T05:44:01.344Z,7.00
2019-02-09T05:46:33.403Z,7.00
2019-02-09T05:49:04.836Z,7.10
2019-02-09T05:51:36.245Z,7.10
2019-02-09T05:54:07.905Z,7.10
2019-02-09T05:56:43.726Z,7.10
2019-02-09T05:59:15.716Z,7.10
2019-02-09T06:01:47.463Z,7.10
2019-02-09T06:04:19.527Z,7.20
2019-02-09T06:06:51.413Z,7.30
2019-02-09T06:09:23.428Z,7.20
2019-02-09T06:11:57.522Z,7.20
2019-02-09T06:14:29.923Z,7.20
2019-02-09T06:17:02.321Z,7.20
2019-02-09T06:19:34.199Z,7.20
2019-02-09T06:22:08.902Z,7.20
2019-02-09T06:24:41.100Z,7.30
2019-02-09T06:27:13.597Z,7.20
2019-02-09T06:29:45.066Z,7.20
2019-02-09T06:32:16.631Z,7.20
2019-02-09T06:34:48.317Z,7.20
2019-02-09T06:37:20.053Z,7.30
2019-02-09T06:39:53.217Z,7.20
2019-02-09T06:42:24.719Z,7.30
2019-02-09T06:44:56.327Z,7.30
2019-02-09T06:47:27.920Z,7.30
2019-02-09T06:49:59.922Z,7.30
2019-02-09T06:52:31.837Z,7.30
2019-02-09T06:55:04.149Z,7.30
2019-02-09T06:57:35.865Z,7.30
2019-02-09T07:00:09.094Z,7.40
2019-02-09T07:02:40.946Z,7.40
2019-02-09T07:05:15.598Z,7.40
2019-02-09T07:07:47.305Z,7.30
2019-02-09T07:10:21.089Z,7.20
2019-02-09T07:12:53.150Z,7.20
2019-02-09T07:15:27.039Z,7.20
2019-02-09T07:17:58.426Z,7.20
2019-02-09T07:20:30.097Z,7.20
2019-02-09T07:23:01.816Z,7.10
2019-02-09T07:25:33.663Z,7.10
2019-02-09T07:28:06.494Z,7.10
2019-02-09T07:30:38.115Z,7.00
2019-02-09T07:33:10.222Z,7.00
2019-02-09T07:35:44.215Z,7.20
2019-02-09T07:38:15.804Z,7.20
2019-02-09T07:40:47.537Z,7.10
2019-02-09T07:43:20.497Z,7.20
2019-02-09T07:45:53.962Z,7.20
2019-02-09T07:48:25.927Z,7.30
2019-02-09T07:50:57.362Z,7.40
2019-02-09T07:53:29.402Z,7.50
2019-02-09T07:56:03.774Z,7.60
2019-02-09T07:58:36.115Z,7.70
2019-02-09T08:01:10.240Z,7.80
2019-02-09T08:03:42.269Z,7.90
2019-02-09T08:06:14.150Z,7.90
2019-02-09T08:08:46.587Z,7.90
2019-02-09T08:11:19.451Z,7.90
2019-02-09T08:13:52.225Z,7.90
2019-02-09T08:16:25.005Z,7.90
2019-02-09T08:18:56.807Z,7.80
2019-02-09T08:21:29.519Z,7.80
2019-02-09T08:24:01.118Z,7.80
2019-02-09T08:26:33.175Z,7.70
2019-02-09T08:29:10.782Z,7.70
2019-02-09T08:31:42.192Z,7.70
2019-02-09T08:34:13.789Z,7.70
2019-02-09T08:36:45.618Z,7.80
2019-02-09T08:39:17.029Z,7.80
2019-02-09T08:41:49.135Z,7.70
2019-02-09T08:44:20.834Z,7.70
2019-02-09T08:46:53.848Z,7.80
2019-02-09T08:49:25.547Z,7.80
2019-02-09T08:51:57.412Z,7.80
2019-02-09T08:54:29.273Z,7.90
2019-02-09T08:57:05.973Z,8.00
2019-02-09T08:59:39.883Z,8.10
2019-02-09T09:02:11.773Z,8.10
2019-02-09T09:04:45.155Z,8.20
2019-02-09T09:07:17.863Z,8.20
2019-02-09T09:09:51.187Z,8.20
2019-02-09T09:12:22.606Z,8.30
2019-02-09T09:14:54.501Z,8.40
2019-02-09T09:17:26.064Z,8.40
2019-02-09T09:19:59.383Z,8.50
2019-02-09T09:22:31.120Z,8.50
2019-02-09T09:25:03.010Z,8.60
2019-02-09T09:27:37.458Z,8.60
2019-02-09T09:30:11.807Z,8.70
2019-02-09T09:32:43.827Z,8.70
2019-02-09T09:35:17.118Z,8.80
2019-02-09T09:37:49.014Z,8.80
2019-02-09T09:40:29.905Z,8.90
2019-02-09T09:43:01.650Z,8.90
2019-02-09T09:45:35.952Z,9.00
2019-02-09T09:48:09.742Z,9.10
2019-02-09T09:50:42.774Z,9.10
2019-02-09T09:53:14.425Z,9.20
2019-02-09T09:55:50.534Z,9.20
2019-02-09T09:58:23.628Z,9.20
2019-02-09T10:00:56.808Z,9.30
2019-02-09T10:03:28.296Z,9.30
2019-02-09T10:06:01.186Z,9.30
2019-02-09T10:08:35.138Z,9.40
2019-02-09T10:11:06.995Z,9.40
2019-02-09T10:13:42.044Z,9.40
2019-02-09T10:16:13.691Z,9.30
2019-02-09T10:18:46.239Z,9.20
2019-02-09T10:21:19.006Z,9.10
2019-02-09T10:23:50.714Z,9.00
2019-02-09T10:26:22.458Z,8.70
2019-02-09T10:28:53.912Z,8.50
2019-02-09T10:31:27.589Z,8.20
2019-02-09T10:34:01.959Z,8.00
2019-02-09T10:36:35.628Z,7.90
2019-02-09T10:39:12.409Z,7.90
2019-02-09T10:41:44.805Z,7.80
2019-02-09T10:44:16.575Z,7.90
2019-02-09T10:46:48.680Z,7.90
2019-02-09T10:49:21.203Z,8.00
2019-02-09T10:51:52.830Z,8.10
2019-02-09T10:54:25.030Z,8.20
2019-02-09T10:56:58.422Z,8.30
2019-02-09T10:59:30.110Z,8.30
2019-02-09T11:02:01.895Z,8.40
2019-02-09T11:04:35.327Z,8.50
2019-02-09T11:07:12.816Z,8.70
2019-02-09T11:09:44.549Z,8.90
2019-02-09T11:12:18.587Z,9.10
2019-02-09T11:14:51.924Z,9.20
2019-02-09T11:17:23.621Z,9.30
2019-02-09T11:19:55.059Z,9.40
2019-02-09T11:22:27.011Z,9.50
2019-02-09T11:25:03.441Z,9.70
2019-02-09T11:27:35.081Z,9.70
2019-02-09T11:30:11.834Z,9.80
2019-02-09T11:32:43.291Z,9.90
2019-02-09T11:35:16.853Z,10.10
2019-02-09T11:37:48.865Z,10.20
2019-02-09T11:40:23.755Z,10.30
2019-02-09T11:42:58.693Z,10.40
2019-02-09T11:45:33.488Z,10.50
2019-02-09T11:48:08.903Z,10.50
2019-02-09T11:50:41.967Z,10.60
2019-02-09T11:53:13.949Z,10.60
2019-02-09T11:55:45.605Z,10.80
2019-02-09T11:58:19.140Z,11.00
2019-02-09T12:00:53.594Z,11.10
2019-02-09T12:03:27.292Z,11.20
2019-02-09T12:05:59.204Z,11.30
2019-02-09T12:08:30.893Z,11.20
2019-02-09T12:11:06.641Z,11.20
2019-02-09T12:13:44.737Z,11.20
2019-02-09T12:16:16.366Z,11.20
2019-02-09T12:18:48.144Z,11.20
2019-02-09T12:21:20.986Z,11.10
2019-02-09T12:23:54.708Z,11.00
2019-02-09T12:26:26.836Z,10.90
2019-02-09T12:28:58.606Z,10.80
2019-02-09T12:31:30.072Z,10.80
2019-02-09T12:34:01.770Z,10.90
2019-02-09T12:36:34.381Z,10.80
2019-02-09T12:39:09.858Z,10.90
2019-02-09T12:41:42.172Z,10.70
2019-02-09T12:44:17.032Z,10.60
2019-02-09T12:46:48.472Z,10.50
2019-02-09T12:49:22.876Z,10.50
2019-02-09T12:51:54.331Z,10.50
2019-02-09T12:54:26.018Z,10.50
2019-02-09T12:56:58.306Z,10.60
2019-02-09T12:59:34.731Z,10.60
2019-02-09T13:02:06.666Z,10.80
2019-02-09T13:04:38.581Z,10.90
2019-02-09T13:07:14.925Z,10.90
2019-02-09T13:09:46.535Z,10.90
2019-02-09T13:12:17.893Z,10.80
2019-02-09T13:14:52.994Z,10.70
2019-02-09T13:17:27.431Z,10.70
2019-02-09T13:20:05.774Z,10.80
2019-02-09T13:22:43.855Z,10.70
2019-02-09T13:25:18.383Z,10.80
2019-02-09T13:27:50.727Z,10.90
2019-02-09T13:30:27.933Z,10.90
2019-02-09T13:33:03.957Z,10.80
2019-02-09T13:35:36.594Z,10.70
2019-02-09T13:38:11.972Z,10.60
2019-02-09T13:40:43.669Z,10.60
2019-02-09T13:43:15.511Z,10.50
2019-02-09T13:45:53.065Z,10.40
2019-02-09T13:48:28.349Z,10.40
2019-02-09T13:51:02.679Z,10.50
2019-02-09T13:53:36.291Z,10.60
2019-02-09T13:56:09.363Z,10.60
2019-02-09T13:58:41.365Z,10.70
2019-02-09T14:01:15.539Z,10.70
2019-02-09T14:03:47.427Z,10.70
2019-02-09T14:06:22.568Z,10.80
2019-02-09T14:08:56.667Z,10.80
2019-02-09T14:11:28.451Z,10.90
2019-02-09T14:14:00.304Z,10.90
2019-02-09T14:16:38.558Z,10.80
2019-02-09T14:19:06.877Z,10.70
2019-02-09T14:21:38.638Z,10.70
2019-02-09T14:24:10.890Z,10.60
2019-02-09T14:26:47.096Z,10.70
2019-02-09T14:29:18.598Z,10.70
2019-02-09T14:31:50.834Z,10.80
2019-02-09T14:34:26.247Z,10.80
2019-02-09T14:36:59.959Z,10.70
2019-02-09T14:39:38.626Z,10.80
2019-02-09T14:42:10.353Z,10.70
2019-02-09T14:44:43.199Z,10.70
2019-02-09T14:47:16.353Z,10.70
2019-02-09T14:49:49.425Z,10.60
2019-02-09T14:52:23.014Z,10.70
2019-02-09T14:54:56.144Z,10.70
2019-02-09T14:57:28.020Z,10.80
2019-02-09T14:59:59.702Z,10.80
2019-02-09T15:02:31.171Z,10.90
2019-02-09T15:05:03.402Z,10.70
2019-02-09T15:07:36.601Z,10.70
2019-02-09T15:10:09.904Z,10.50
2019-02-09T15:12:41.692Z,10.40
2019-02-09T15:15:22.475Z,10.30
2019-02-09T15:17:54.586Z,10.30
2019-02-09T15:20:29.002Z,10.20
2019-02-09T15:23:06.161Z,10.20
2019-02-09T15:25:38.185Z,10.10
2019-02-09T15:28:12.607Z,10.10
2019-02-09T15:30:43.017Z,10.20
2019-02-09T15:33:14.718Z,10.10
2019-02-09T15:35:49.139Z,10.10
2019-02-09T15:38:23.571Z,10.00
2019-02-09T15:40:55.501Z,10.00
2019-02-09T15:43:31.045Z,10.00
2019-02-09T15:46:02.735Z,9.90
2019-02-09T15:48:34.577Z,9.90
2019-02-09T15:51:09.395Z,9.80
2019-02-09T15:53:40.983Z,9.80
2019-02-09T15:56:16.299Z,9.80
2019-02-09T15:58:49.705Z,9.80
2019-02-09T16:01:21.689Z,9.70
2019-02-09T16:03:53.159Z,9.70
2019-02-09T16:06:26.689Z,9.70
2019-02-09T16:08:58.168Z,9.60
2019-02-09T16:11:31.029Z,9.60
2019-02-09T16:14:06.720Z,9.60
2019-02-09T16:16:38.242Z,9.60
2019-02-09T16:19:11.211Z,9.60
2019-02-09T16:21:44.120Z,9.50
2019-02-09T16:24:18.407Z,9.60
2019-02-09T16:26:51.139Z,9.60
2019-02-09T16:29:25.299Z,9.50
2019-02-09T16:32:01.941Z,9.50
2019-02-09T16:34:33.459Z,9.50
2019-02-09T16:37:05.135Z,9.50
2019-02-09T16:39:39.626Z,9.50
2019-02-09T16:42:11.352Z,9.40
2019-02-09T16:44:44.094Z,9.30
2019-02-09T16:47:15.869Z,9.30
2019-02-09T16:49:47.828Z,9.30
2019-02-09T16:52:21.930Z,9.30
2019-02-09T16:54:55.970Z,9.20
2019-02-09T16:57:28.036Z,9.20
2019-02-09T16:59:59.510Z,9.20
2019-02-09T17:02:31.000Z,9.20
2019-02-09T17:05:03.927Z,9.10
2019-02-09T17:07:37.812Z,9.10
2019-02-09T17:10:10.219Z,9.00
2019-02-09T17:12:43.052Z,9.00
2019-02-09T17:15:17.642Z,8.90
2019-02-09T17:17:50.768Z,8.90
2019-02-09T17:20:23.955Z,8.90
2019-02-09T17:22:56.652Z,8.80
2019-02-09T17:25:30.266Z,8.80
2019-02-09T17:28:04.070Z,8.80
2019-02-09T17:30:35.944Z,8.80
2019-02-09T17:33:08.095Z,8.80
2019-02-09T17:35:41.769Z,8.80
2019-02-09T17:38:13.324Z,8.80
2019-02-09T17:40:47.059Z,8.80
2019-02-09T17:43:19.325Z,8.80
2019-02-09T17:45:57.433Z,8.80
2019-02-09T17:48:29.750Z,8.80
2019-02-09T17:51:03.518Z,8.80
2019-02-09T17:53:36.947Z,8.70
2019-02-09T17:56:10.599Z,8.70
2019-02-09T17:58:42.029Z,8.80
2019-02-09T18:01:16.922Z,8.80
2019-02-09T18:03:48.601Z,8.80
2019-02-09T18:06:21.515Z,8.70
2019-02-09T18:08:54.045Z,8.80
2019-02-09T18:11:25.537Z,8.80
2019-02-09T18:13:59.636Z,8.80
2019-02-09T18:16:31.141Z,8.80
2019-02-09T18:19:02.781Z,8.80
2019-02-09T18:21:38.789Z,8.80
2019-02-09T18:24:13.727Z,8.80
2019-02-09T18:26:46.687Z,8.80
2019-02-09T18:29:18.343Z,8.80
2019-02-09T18:31:53.788Z,8.70
2019-02-09T18:34:27.155Z,8.70
2019-02-09T18:36:58.615Z,8.70
2019-02-09T18:39:30.507Z,8.70
2019-02-09T18:42:01.963Z,8.80
2019-02-09T18:44:34.799Z,8.70
2019-02-09T18:47:06.256Z,8.70
2019-02-09T18:49:39.625Z,8.70
2019-02-09T18:52:14.423Z,8.80
2019-02-09T18:54:46.944Z,8.70
2019-02-09T18:57:18.531Z,8.60
2019-02-09T18:59:50.432Z,8.80
2019-02-09T19:02:22.121Z,8.70
2019-02-09T19:05:04.199Z,8.70
2019-02-09T19:07:31.339Z,8.80
2019-02-09T19:10:03.062Z,8.70
2019-02-09T19:12:35.964Z,8.70
2019-02-09T19:15:09.508Z,8.70
2019-02-09T19:17:41.907Z,8.80
2019-02-09T19:20:25.557Z,8.70
2019-02-09T19:22:59.170Z,8.70
2019-02-09T19:25:31.263Z,8.80
2019-02-09T19:28:02.934Z,8.80
2019-02-09T19:30:34.545Z,8.80
2019-02-09T19:33:07.351Z,8.80
2019-02-09T19:35:39.062Z,8.80
2019-02-09T19:38:12.698Z,8.80
2019-02-09T19:40:44.618Z,8.80
2019-02-09T19:43:16.767Z,8.80
2019-02-09T19:45:48.338Z,8.70
2019-02-09T19:48:20.165Z,8.70
2019-02-09T19:50:51.541Z,8.60
2019-02-09T19:53:24.855Z,8.70
2019-02-09T19:55:56.892Z,8.70
2019-02-09T19:58:29.439Z,8.60
2019-02-09T20:01:00.981Z,8.60
2019-02-09T20:03:32.631Z,8.50
2019-02-09T20:06:05.449Z,8.60
2019-02-09T20:08:37.039Z,8.60
2019-02-09T20:11:08.511Z,8.60
2019-02-09T20:13:41.451Z,8.60
2019-02-09T20:16:13.114Z,8.60
2019-02-09T20:18:45.249Z,8.70
2019-02-09T20:21:16.865Z,8.60
2019-02-09T20:23:49.913Z,8.60
2019-02-09T20:26:21.675Z,8.60
2019-02-09T20:28:53.270Z,8.40
2019-02-09T20:31:24.793Z,8.40
2019-02-09T20:33:56.142Z,8.30
2019-02-09T20:36:29.910Z,8.40
2019-02-09T20:39:04.621Z,8.40
2019-02-09T20:41:36.191Z,8.60
2019-02-09T20:44:08.158Z,8.60
2019-02-09T20:46:41.519Z,8.50
2019-02-09T20:49:14.573Z,8.50
2019-02-09T20:51:48.033Z,8.60
2019-02-09T20:54:19.596Z,8.70
2019-02-09T20:56:51.008Z,8.70
2019-02-09T20:59:22.655Z,8.70
2019-02-09T21:01:54.845Z,8.70
2019-02-09T21:04:32.492Z,8.70
2019-02-09T21:07:04.423Z,8.70
2019-02-09T21:09:36.954Z,8.70
2019-02-09T21:12:11.874Z,8.70
2019-02-09T21:14:44.098Z,8.70
2019-02-09T21:17:15.671Z,8.70
2019-02-09T21:19:50.974Z,8.70
2019-02-09T21:22:25.754Z,8.70
2019-02-09T21:25:00.171Z,8.70
2019-02-09T21:27:31.942Z,8.70
2019-02-09T21:30:04.023Z,8.60
2019-02-09T21:32:40.271Z,8.70
2019-02-09T21:35:11.178Z,8.70
2019-02-09T21:37:42.903Z,8.70
2019-02-09T21:40:20.804Z,8.60
2019-02-09T21:42:52.467Z,8.70
2019-02-09T21:45:24.882Z,8.60
2019-02-09T21:47:58.764Z,8.70
2019-02-09T21:50:32.835Z,8.60
2019-02-09T21:53:06.708Z,8.60
2019-02-09T21:55:38.417Z,8.60
2019-02-09T21:58:11.042Z,8.60
2019-02-09T22:00:44.200Z,8.60
2019-02-09T22:03:16.274Z,8.60
2019-02-09T22:05:51.985Z,8.60
2019-02-09T22:08:21.036Z,8.50
2019-02-09T22:10:52.862Z,8.50
2019-02-09T22:13:24.752Z,8.60
2019-02-09T22:15:58.015Z,8.60
2019-02-09T22:18:30.760Z,8.60
2019-02-09T22:21:02.409Z,8.60
2019-02-09T22:23:34.892Z,8.50
2019-02-09T22:26:13.007Z,8.50
2019-02-09T22:28:39.779Z,8.50
2019-02-09T22:31:12.406Z,8.50
2019-02-09T22:33:44.226Z,8.60
2019-02-09T22:36:17.358Z,8.60
2019-02-09T22:38:52.208Z,8.60
2019-02-09T22:41:24.555Z,8.60
2019-02-09T22:43:56.158Z,8.60
2019-02-09T22:46:29.147Z,8.70
2019-02-09T22:49:00.775Z,8.70
2019-02-09T22:51:32.261Z,8.70
2019-02-09T22:54:05.255Z,8.70
2019-02-09T22:56:37.399Z,8.70
2019-02-09T22:59:09.213Z,8.70
2019-02-09T23:01:54.065Z,8.80
2019-02-09T23:05:12.622Z,8.70
2019-02-09T23:07:45.054Z,8.80
2019-02-09T23:10:17.805Z,8.80
2019-02-09T23:12:49.694Z,8.90
2019-02-09T23:15:21.145Z,8.80
2019-02-09T23:17:53.848Z,8.90
2019-02-09T23:20:26.007Z,8.80
2019-02-09T23:22:57.691Z,8.90
2019-02-09T23:25:29.379Z,8.80
2019-02-09T23:28:01.982Z,8.70
2019-02-09T23:30:33.507Z,8.80
2019-02-09T23:33:05.145Z,8.80
2019-02-09T23:35:36.885Z,8.80
2019-02-09T23:38:09.547Z,8.80
2019-02-09T23:40:41.196Z,8.80
2019-02-09T23:43:13.176Z,8.80
2019-02-09T23:45:46.453Z,8.70
2019-02-09T23:48:17.932Z,8.80
2019-02-09T23:50:50.537Z,8.80
2019-02-09T23:53:22.038Z,8.70
2019-02-09T23:55:53.999Z,8.70
2019-02-09T23:58:25.642Z,8.60
